createdAt,value
2023-01-15T00:01:46.586Z,0.75
2023-01-15T00:04:13.439Z,0.82
2023-01-15T00:06:41.344Z,1.00
2023-01-15T00:09:08.338Z,0.85
2023-01-15T00:11:35.000Z,0.55
2023-01-15T00:14:01.653Z,0.75
2023-01-15T00:16:28.324Z,0.60
2023-01-15T00:18:59.095Z,0.80
2023-01-15T00:21:26.958Z,0.80
2023-01-15T00:24:12.418Z,0.80
2023-01-15T00:26:58.183Z,0.80
2023-01-15T00:29:25.442Z,0.85
2023-01-15T00:31:53.947Z,0.90
2023-01-15T00:34:20.723Z,0.80
2023-01-15T00:36:47.461Z,0.88
2023-01-15T00:39:14.088Z,0.70
2023-01-15T00:41:40.759Z,0.85
2023-01-15T00:44:07.467Z,0.70
2023-01-15T00:46:34.201Z,0.70
2023-01-15T00:49:00.894Z,0.80
2023-01-15T00:51:27.578Z,0.80
2023-01-15T00:53:54.241Z,1.02
2023-01-15T00:56:20.983Z,0.52
2023-01-15T00:58:48.004Z,1.00
2023-01-15T01:01:15.294Z,0.95
2023-01-15T01:03:42.317Z,0.80
2023-01-15T01:06:10.570Z,0.80
2023-01-15T01:08:37.379Z,0.82
2023-01-15T01:11:09.184Z,0.82
2023-01-15T01:13:36.321Z,0.88
2023-01-15T01:16:03.007Z,0.70
2023-01-15T01:18:30.276Z,0.90
2023-01-15T01:20:57.160Z,0.77
2023-01-15T01:23:24.532Z,0.90
2023-01-15T01:25:51.215Z,0.82
2023-01-15T01:28:17.954Z,0.70
2023-01-15T01:30:45.059Z,0.82
2023-01-15T01:33:11.772Z,0.95
2023-01-15T01:35:38.490Z,0.93
2023-01-15T01:38:05.216Z,0.88
2023-01-15T01:40:31.961Z,0.88
2023-01-15T01:42:58.740Z,0.77
2023-01-15T01:45:30.443Z,0.70
2023-01-15T01:48:03.041Z,0.68
2023-01-15T01:50:31.398Z,0.90
2023-01-15T01:53:04.144Z,0.65
2023-01-15T01:55:31.015Z,0.77
2023-01-15T01:57:59.378Z,0.70
2023-01-15T02:00:26.043Z,0.80
2023-01-15T02:02:52.960Z,0.70
2023-01-15T02:05:24.099Z,0.90
2023-01-15T02:07:50.953Z,0.85
2023-01-15T02:10:17.977Z,0.80
2023-01-15T02:12:50.650Z,0.70
2023-01-15T02:15:29.480Z,0.95
2023-01-15T02:18:01.749Z,0.80
2023-01-15T02:20:50.584Z,0.70
2023-01-15T02:23:20.103Z,0.68
2023-01-15T02:26:02.018Z,0.77
2023-01-15T02:28:30.145Z,0.75
2023-01-15T02:31:01.437Z,0.93
2023-01-15T02:33:33.418Z,0.70
2023-01-15T02:36:06.652Z,0.73
2023-01-15T02:38:37.357Z,0.77
2023-01-15T02:41:05.640Z,0.70
2023-01-15T02:43:37.768Z,0.90
2023-01-15T02:46:05.163Z,0.70
2023-01-15T02:48:33.742Z,0.77
2023-01-15T02:51:10.115Z,0.88
2023-01-15T02:53:39.927Z,0.70
2023-01-15T02:56:10.452Z,0.85
2023-01-15T02:58:45.164Z,1.02
2023-01-15T03:01:18.783Z,0.60
2023-01-15T03:03:51.853Z,0.65
2023-01-15T03:06:21.757Z,0.60
2023-01-15T03:08:50.691Z,0.60
2023-01-15T03:11:21.324Z,0.70
2023-01-15T03:13:59.139Z,0.70
2023-01-15T03:16:35.955Z,0.70
2023-01-15T03:19:10.678Z,0.70
2023-01-15T03:21:43.420Z,0.65
2023-01-15T03:24:11.348Z,0.70
2023-01-15T03:26:38.049Z,0.60
2023-01-15T03:29:06.144Z,0.70
2023-01-15T03:31:34.446Z,0.63
2023-01-15T03:34:01.263Z,0.50
2023-01-15T03:36:27.972Z,0.60
2023-01-15T03:38:59.963Z,0.60
2023-01-15T03:41:59.334Z,0.70
2023-01-15T03:44:49.615Z,0.60
2023-01-15T03:47:36.167Z,0.68
2023-01-15T03:50:07.273Z,0.80
2023-01-15T03:53:01.914Z,0.70
2023-01-15T03:55:38.071Z,0.65
2023-01-15T03:58:13.270Z,0.60
2023-01-15T04:00:59.794Z,0.60
2023-01-15T04:03:28.327Z,0.47
2023-01-15T04:05:56.471Z,0.70
2023-01-15T04:08:23.949Z,0.50
2023-01-15T04:10:55.108Z,0.60
2023-01-15T04:13:23.797Z,0.65
2023-01-15T04:15:52.863Z,0.68
2023-01-15T04:18:20.063Z,0.90
2023-01-15T04:20:46.836Z,0.63
2023-01-15T04:23:13.997Z,0.50
2023-01-15T04:25:41.082Z,0.50
2023-01-15T04:28:08.603Z,0.82
2023-01-15T04:30:36.324Z,0.50
2023-01-15T04:33:03.384Z,0.55
2023-01-15T04:35:29.988Z,0.50
2023-01-15T04:37:57.495Z,0.60
2023-01-15T04:40:42.807Z,0.70
2023-01-15T04:43:31.667Z,0.47
2023-01-15T04:45:58.829Z,0.60
2023-01-15T04:48:25.887Z,0.40
2023-01-15T04:50:52.613Z,0.60
2023-01-15T04:53:19.373Z,0.55
2023-01-15T04:55:46.047Z,0.50
2023-01-15T04:58:12.708Z,0.40
2023-01-15T05:00:40.158Z,0.52
2023-01-15T05:03:06.752Z,0.57
2023-01-15T05:05:33.441Z,0.57
2023-01-15T05:08:00.076Z,0.57
2023-01-15T05:10:26.716Z,0.63
2023-01-15T05:12:53.280Z,0.50
2023-01-15T05:15:19.853Z,0.60
2023-01-15T05:17:46.543Z,0.60
2023-01-15T05:20:14.987Z,1.38
2023-01-15T05:22:41.709Z,0.50
2023-01-15T05:25:08.554Z,0.60
2023-01-15T05:27:35.202Z,0.60
2023-01-15T05:30:01.791Z,0.60
2023-01-15T05:32:30.007Z,0.57
2023-01-15T05:34:56.639Z,0.57
2023-01-15T05:37:23.297Z,0.50
2023-01-15T05:39:50.027Z,0.50
2023-01-15T05:42:16.665Z,0.75
2023-01-15T05:44:43.373Z,0.85
2023-01-15T05:47:10.570Z,0.98
2023-01-15T05:49:37.686Z,0.90
2023-01-15T05:52:04.452Z,1.08
2023-01-15T05:54:32.839Z,0.85
2023-01-15T05:57:00.004Z,0.68
2023-01-15T05:59:27.600Z,0.73
2023-01-15T06:01:54.616Z,0.73
2023-01-15T06:04:21.846Z,1.00
2023-01-15T06:06:49.777Z,0.90
2023-01-15T06:09:17.130Z,0.63
2023-01-15T06:11:43.863Z,0.70
2023-01-15T06:14:11.672Z,0.88
2023-01-15T06:16:40.934Z,0.85
2023-01-15T06:19:08.288Z,0.65
2023-01-15T06:21:35.694Z,1.05
2023-01-15T06:24:02.808Z,0.70
2023-01-15T06:26:29.476Z,0.80
2023-01-15T06:28:56.119Z,1.00
2023-01-15T06:31:23.660Z,0.63
2023-01-15T06:33:50.443Z,0.70
2023-01-15T06:36:24.279Z,0.77
2023-01-15T06:38:51.161Z,0.70
2023-01-15T06:41:45.443Z,0.75
2023-01-15T06:44:34.813Z,0.70
2023-01-15T06:47:21.825Z,0.60
2023-01-15T06:49:49.804Z,0.50
2023-01-15T06:52:16.593Z,0.60
2023-01-15T06:54:43.317Z,0.73
2023-01-15T06:57:10.014Z,0.47
2023-01-15T06:59:36.722Z,0.70
2023-01-15T07:02:03.435Z,1.15
2023-01-15T07:04:30.316Z,0.60
2023-01-15T07:06:56.978Z,0.70
2023-01-15T07:09:23.642Z,0.70
2023-01-15T07:11:50.348Z,0.70
2023-01-15T07:14:17.760Z,0.65
2023-01-15T07:16:44.497Z,0.60
2023-01-15T07:19:11.346Z,0.60
2023-01-15T07:21:38.128Z,0.88
2023-01-15T07:24:05.025Z,0.80
2023-01-15T07:26:31.672Z,0.60
2023-01-15T07:28:58.307Z,0.70
2023-01-15T07:31:25.066Z,0.85
2023-01-15T07:33:51.794Z,0.60
2023-01-15T07:36:18.457Z,0.80
2023-01-15T07:38:45.148Z,0.68
2023-01-15T07:41:30.513Z,0.50
2023-01-15T07:44:15.884Z,0.47
2023-01-15T07:47:01.224Z,0.75
2023-01-15T07:49:46.193Z,0.73
2023-01-15T07:52:13.674Z,0.70
2023-01-15T07:54:40.294Z,0.80
2023-01-15T07:57:07.452Z,0.88
2023-01-15T07:59:34.389Z,0.88
2023-01-15T08:02:01.126Z,0.95
2023-01-15T08:04:27.906Z,0.90
2023-01-15T08:06:54.574Z,1.00
2023-01-15T08:09:21.336Z,1.40
2023-01-15T08:12:06.670Z,1.08
2023-01-15T08:14:52.047Z,1.23
2023-01-15T08:17:18.743Z,1.17
2023-01-15T08:19:45.297Z,1.60
2023-01-15T08:22:12.116Z,0.70
2023-01-15T08:24:38.806Z,0.80
2023-01-15T08:27:05.701Z,0.55
2023-01-15T08:29:32.461Z,0.75
2023-01-15T08:31:59.153Z,0.80
2023-01-15T08:34:25.856Z,1.67
2023-01-15T08:36:57.419Z,1.02
2023-01-15T08:39:24.097Z,0.82
2023-01-15T08:41:50.718Z,1.20
2023-01-15T08:44:17.343Z,1.50
2023-01-15T08:46:44.085Z,1.38
2023-01-15T08:49:10.993Z,0.70
2023-01-15T08:51:37.571Z,0.90
2023-01-15T08:54:04.206Z,1.70
2023-01-15T08:56:30.829Z,1.75
2023-01-15T08:58:57.566Z,1.35
2023-01-15T09:01:24.523Z,2.40
2023-01-15T09:03:51.307Z,1.77
2023-01-15T09:06:17.892Z,1.00
2023-01-15T09:08:44.527Z,1.00
2023-01-15T09:11:13.083Z,1.88
2023-01-15T09:13:39.840Z,0.90
2023-01-15T09:16:07.096Z,1.27
2023-01-15T09:18:35.700Z,1.10
2023-01-15T09:21:02.472Z,0.60
2023-01-15T09:23:29.386Z,0.70
2023-01-15T09:25:57.729Z,0.40
2023-01-15T09:28:24.448Z,0.50
2023-01-15T09:30:51.312Z,0.75
2023-01-15T09:33:18.221Z,0.30
2023-01-15T09:35:45.171Z,0.50
2023-01-15T09:38:15.819Z,0.70
2023-01-15T09:40:49.296Z,0.60
2023-01-15T09:43:35.357Z,0.50
2023-01-15T09:46:11.210Z,0.30
2023-01-15T09:48:43.791Z,0.30
2023-01-15T09:51:19.631Z,0.30
2023-01-15T09:54:05.513Z,0.47
2023-01-15T09:56:33.598Z,0.30
2023-01-15T09:59:04.327Z,0.30
2023-01-15T10:01:32.264Z,0.30
2023-01-15T10:03:58.925Z,0.30
2023-01-15T10:06:38.072Z,0.30
2023-01-15T10:09:10.614Z,0.30
2023-01-15T10:12:06.852Z,0.22
2023-01-15T10:14:40.663Z,0.25
2023-01-15T10:17:36.163Z,0.30
2023-01-15T10:20:03.498Z,0.40
2023-01-15T10:22:48.681Z,0.32
2023-01-15T10:25:16.825Z,0.40
2023-01-15T10:27:47.822Z,0.32
2023-01-15T10:30:20.583Z,0.30
2023-01-15T10:33:03.188Z,0.25
2023-01-15T10:35:47.881Z,0.40
2023-01-15T10:38:15.230Z,0.20
2023-01-15T10:41:00.685Z,0.30
2023-01-15T10:43:37.553Z,0.20
2023-01-15T10:46:10.528Z,0.30
2023-01-15T10:48:48.814Z,0.20
2023-01-15T10:51:15.502Z,0.20
2023-01-15T10:53:45.260Z,0.17
2023-01-15T10:56:21.190Z,0.28
2023-01-15T10:58:54.987Z,0.30
2023-01-15T11:01:23.834Z,0.20
2023-01-15T11:03:50.652Z,0.30
2023-01-15T11:06:19.094Z,0.30
2023-01-15T11:11:58.999Z,0.22
2023-01-15T11:14:54.571Z,0.28
2023-01-15T11:17:48.422Z,0.30
2023-01-15T11:20:24.179Z,0.30
2023-01-15T11:22:50.920Z,0.20
2023-01-15T11:25:31.045Z,0.30
2023-01-15T11:27:59.135Z,0.20
2023-01-15T11:30:27.330Z,0.20
2023-01-15T11:32:58.106Z,0.20
2023-01-15T11:35:24.803Z,0.50
2023-01-15T11:38:01.477Z,2.47
2023-01-15T11:40:28.155Z,0.77
2023-01-15T11:43:13.408Z,0.30
2023-01-15T11:46:08.980Z,0.30
2023-01-15T11:49:02.280Z,0.30
2023-01-15T11:51:30.840Z,0.30
2023-01-15T11:54:02.075Z,0.28
2023-01-15T11:56:29.966Z,0.40
2023-01-15T11:58:58.546Z,0.40
2023-01-15T12:01:34.083Z,0.45
2023-01-15T12:04:02.371Z,0.30
2023-01-15T12:06:30.447Z,0.30
2023-01-15T12:09:12.508Z,0.30
2023-01-15T12:12:08.716Z,0.30
2023-01-15T12:14:39.383Z,0.45
2023-01-15T12:17:12.273Z,0.80
2023-01-15T12:19:48.045Z,0.38
2023-01-15T12:22:32.451Z,0.50
2023-01-15T12:25:25.576Z,0.30
2023-01-15T12:28:12.395Z,0.22
2023-01-15T12:30:39.529Z,0.45
2023-01-15T12:33:06.459Z,0.20
2023-01-15T12:35:35.534Z,0.30
2023-01-15T12:38:02.392Z,0.20
2023-01-15T12:40:42.546Z,0.20
2023-01-15T12:43:41.995Z,0.30
2023-01-15T12:46:12.840Z,0.28
2023-01-15T12:48:59.687Z,0.28
2023-01-15T12:51:30.365Z,0.30
2023-01-15T12:53:59.262Z,0.30
2023-01-15T12:56:29.107Z,1.00
2023-01-15T12:59:04.234Z,0.20
2023-01-15T13:01:49.578Z,0.20
2023-01-15T13:04:28.536Z,0.28
2023-01-15T13:07:15.510Z,0.20
2023-01-15T13:09:49.064Z,0.30
2023-01-15T13:12:16.428Z,0.32
2023-01-15T13:14:46.458Z,0.30
2023-01-15T13:17:19.256Z,0.22
2023-01-15T13:19:48.742Z,0.38
2023-01-15T13:22:22.328Z,0.30
2023-01-15T13:25:18.330Z,0.40
2023-01-15T13:28:08.693Z,0.40
2023-01-15T13:30:35.652Z,0.40
2023-01-15T13:33:11.336Z,0.30
2023-01-15T13:35:41.975Z,0.50
2023-01-15T13:38:15.442Z,0.28
2023-01-15T13:40:46.580Z,0.32
2023-01-15T13:43:23.681Z,0.63
2023-01-15T13:45:50.932Z,0.85
2023-01-15T13:48:40.598Z,0.70
2023-01-15T13:51:17.158Z,0.50
2023-01-15T13:53:48.330Z,0.45
2023-01-15T13:56:25.252Z,0.50
2023-01-15T13:58:55.524Z,0.50
2023-01-15T14:01:24.305Z,1.05
2023-01-15T14:03:55.784Z,1.00
2023-01-15T14:06:22.659Z,0.60
2023-01-15T14:08:51.739Z,0.40
2023-01-15T14:11:34.730Z,0.55
2023-01-15T14:14:16.859Z,0.40
2023-01-15T14:16:44.017Z,0.50
2023-01-15T14:19:21.262Z,0.40
2023-01-15T14:21:54.956Z,0.60
2023-01-15T14:24:27.611Z,0.90
2023-01-15T14:26:59.612Z,0.60
2023-01-15T14:29:45.059Z,1.23
2023-01-15T14:32:31.278Z,0.63
2023-01-15T14:35:02.103Z,0.50
2023-01-15T14:37:52.113Z,0.52
2023-01-15T14:40:20.055Z,0.50
2023-01-15T14:43:08.669Z,0.30
2023-01-15T14:45:36.349Z,0.30
2023-01-15T14:48:05.009Z,0.40
2023-01-15T14:50:33.524Z,0.35
2023-01-15T14:53:03.682Z,0.28
2023-01-15T14:55:30.957Z,0.25
2023-01-15T14:58:03.289Z,0.40
2023-01-15T15:00:34.917Z,0.40
2023-01-15T15:03:02.079Z,0.45
2023-01-15T15:05:29.777Z,0.30
2023-01-15T15:07:57.201Z,0.30
2023-01-15T15:10:32.605Z,0.40
2023-01-15T15:13:06.354Z,0.30
2023-01-15T15:15:33.030Z,0.80
2023-01-15T15:18:03.017Z,0.50
2023-01-15T15:20:33.561Z,0.40
2023-01-15T15:23:24.165Z,0.40
2023-01-15T15:25:58.019Z,0.28
2023-01-15T15:28:24.641Z,0.35
2023-01-15T15:30:52.061Z,0.40
2023-01-15T15:33:21.048Z,0.60
2023-01-15T15:35:52.885Z,0.60
2023-01-15T15:38:20.684Z,1.00
2023-01-15T15:40:50.613Z,0.52
2023-01-15T15:43:41.439Z,0.45
2023-01-15T15:46:40.485Z,0.80
2023-01-15T15:49:07.799Z,1.00
2023-01-15T15:51:36.690Z,5.18
2023-01-15T15:54:03.501Z,1.00
2023-01-15T15:56:31.701Z,1.63
2023-01-15T15:58:59.583Z,1.65
2023-01-15T16:01:26.440Z,0.93
2023-01-15T16:03:53.241Z,1.77
2023-01-15T16:06:21.507Z,3.58
2023-01-15T16:08:58.718Z,1.98
2023-01-15T16:11:26.015Z,2.55
2023-01-15T16:13:54.266Z,0.90
2023-01-15T16:16:24.554Z,1.27
2023-01-15T16:18:53.163Z,1.80
2023-01-15T16:21:24.280Z,1.80
2023-01-15T16:23:57.906Z,0.90
2023-01-15T16:26:29.238Z,2.03
2023-01-15T16:28:57.573Z,2.05
2023-01-15T16:31:24.578Z,2.15
2023-01-15T16:33:57.905Z,2.40
2023-01-15T16:36:25.833Z,0.98
2023-01-15T16:38:52.894Z,2.40
2023-01-15T16:41:28.468Z,1.23
2023-01-15T16:44:00.227Z,1.88
2023-01-15T16:46:29.283Z,4.18
2023-01-15T16:49:14.520Z,2.58
2023-01-15T16:51:44.386Z,1.70
2023-01-15T16:54:31.284Z,1.73
2023-01-15T16:57:01.652Z,1.67
2023-01-15T16:59:28.294Z,8.52
2023-01-15T17:01:56.985Z,6.97
2023-01-15T17:04:41.315Z,2.40
2023-01-15T17:07:14.062Z,1.88
2023-01-15T17:09:46.944Z,1.85
2023-01-15T17:12:32.095Z,1.77
2023-01-15T17:15:15.127Z,1.15
2023-01-15T17:17:42.851Z,1.50
2023-01-15T17:20:10.530Z,1.25
2023-01-15T17:22:37.441Z,0.70
2023-01-15T17:25:21.295Z,2.17
2023-01-15T17:27:48.085Z,0.80
2023-01-15T17:30:15.190Z,1.10
2023-01-15T17:32:42.202Z,0.65
2023-01-15T17:35:29.614Z,0.90
2023-01-15T17:37:56.562Z,4.07
2023-01-15T17:40:24.756Z,2.15
2023-01-15T17:42:51.551Z,1.27
2023-01-15T17:45:25.609Z,1.73
2023-01-15T17:47:52.336Z,1.33
2023-01-15T17:50:19.267Z,1.30
2023-01-15T17:52:46.759Z,1.20
2023-01-15T17:55:33.693Z,1.02
2023-01-15T17:58:19.078Z,0.70
2023-01-15T18:01:04.842Z,0.70
2023-01-15T18:03:50.385Z,1.20
2023-01-15T18:06:17.904Z,0.80
2023-01-15T18:08:47.671Z,0.80
2023-01-15T18:11:14.451Z,0.73
2023-01-15T18:13:42.175Z,0.90
2023-01-15T18:16:09.156Z,0.85
2023-01-15T18:18:36.496Z,0.90
2023-01-15T18:21:04.000Z,1.00
2023-01-15T18:23:31.329Z,1.38
2023-01-15T18:26:02.352Z,0.82
2023-01-15T18:28:30.799Z,1.00
2023-01-15T18:30:57.374Z,1.02
2023-01-15T18:33:24.483Z,0.82
2023-01-15T18:35:51.322Z,0.82
2023-01-15T18:38:18.024Z,6.72
2023-01-15T18:40:44.643Z,1.60
2023-01-15T18:43:29.727Z,1.13
2023-01-15T18:46:19.341Z,0.88
2023-01-15T18:48:46.047Z,0.70
2023-01-15T18:51:12.750Z,0.80
2023-01-15T18:53:39.460Z,0.50
2023-01-15T18:56:06.980Z,0.70
2023-01-15T18:58:33.621Z,0.60
2023-01-15T19:01:05.979Z,0.57
2023-01-15T19:03:32.686Z,0.80
2023-01-15T19:06:12.183Z,0.60
2023-01-15T19:08:39.086Z,0.70
2023-01-15T19:11:13.288Z,0.70
2023-01-15T19:13:40.002Z,0.70
2023-01-15T19:16:25.098Z,0.60
2023-01-15T19:18:54.749Z,0.45
2023-01-15T19:21:21.684Z,0.70
2023-01-15T19:23:48.388Z,1.25
2023-01-15T19:26:15.115Z,0.60
2023-01-15T19:28:41.793Z,0.73
2023-01-15T19:31:28.162Z,0.70
2023-01-15T19:34:31.139Z,0.70
2023-01-15T19:36:46.101Z,0.95
2023-01-15T19:39:12.839Z,0.80
2023-01-15T19:41:58.305Z,0.90
2023-01-15T19:44:43.567Z,0.98
2023-01-15T19:47:41.731Z,0.70
2023-01-15T19:50:19.738Z,0.90
2023-01-15T19:52:47.134Z,3.70
2023-01-15T19:55:15.408Z,8.65
2023-01-15T19:57:43.066Z,8.02
2023-01-15T20:00:11.868Z,2.10
2023-01-15T20:02:38.864Z,3.03
2023-01-15T20:05:06.812Z,3.08
2023-01-15T20:07:33.554Z,2.00
2023-01-15T20:10:00.781Z,2.30
2023-01-15T20:12:46.342Z,0.90
2023-01-15T20:15:12.979Z,0.88
2023-01-15T20:17:39.679Z,1.30
2023-01-15T20:20:10.932Z,1.20
2023-01-15T20:22:37.949Z,1.00
2023-01-15T20:25:05.112Z,0.70
2023-01-15T20:27:32.614Z,0.70
2023-01-15T20:30:00.892Z,1.00
2023-01-15T20:32:27.567Z,0.90
2023-01-15T20:34:54.306Z,1.13
2023-01-15T20:37:21.082Z,1.05
2023-01-15T20:39:47.791Z,1.80
2023-01-15T20:42:34.286Z,2.33
2023-01-15T20:45:08.662Z,2.75
2023-01-15T20:47:54.233Z,1.60
2023-01-15T20:50:21.211Z,1.40
2023-01-15T20:52:49.211Z,1.45
2023-01-15T20:55:16.595Z,1.60
2023-01-15T20:57:43.372Z,1.20
2023-01-15T21:00:15.380Z,3.40
2023-01-15T21:02:43.128Z,1.40
2023-01-15T21:05:10.492Z,1.23
2023-01-15T21:07:37.738Z,1.00
2023-01-15T21:10:05.978Z,1.20
2023-01-15T21:12:32.610Z,0.90
2023-01-15T21:14:59.329Z,0.90
2023-01-15T21:17:26.201Z,0.93
2023-01-15T21:19:53.427Z,0.88
2023-01-15T21:22:20.244Z,0.63
2023-01-15T21:24:51.590Z,0.82
2023-01-15T21:27:18.396Z,0.65
2023-01-15T21:29:47.262Z,1.25
2023-01-15T21:32:14.778Z,1.40
2023-01-15T21:34:46.367Z,1.10
2023-01-15T21:37:14.648Z,0.60
2023-01-15T21:39:41.617Z,0.65
2023-01-15T21:42:34.633Z,0.60
2023-01-15T21:45:01.279Z,0.80
2023-01-15T21:47:28.299Z,0.65
2023-01-15T21:49:54.984Z,1.00
2023-01-15T21:52:21.658Z,0.80
2023-01-15T21:54:48.344Z,0.70
2023-01-15T21:57:15.664Z,1.00
2023-01-15T21:59:42.442Z,0.80
2023-01-15T22:02:15.023Z,0.60
2023-01-15T22:04:43.552Z,0.85
2023-01-15T22:07:11.100Z,0.50
2023-01-15T22:09:38.169Z,0.80
2023-01-15T22:12:05.277Z,0.70
2023-01-15T22:14:32.853Z,0.77
2023-01-15T22:17:00.835Z,0.70
2023-01-15T22:19:28.184Z,0.77
2023-01-15T22:21:57.431Z,0.90
2023-01-15T22:24:28.400Z,0.68
2023-01-15T22:26:55.314Z,0.60
2023-01-15T22:29:23.743Z,0.77
2023-01-15T22:31:50.790Z,0.65
2023-01-15T22:34:17.630Z,0.65
2023-01-15T22:36:44.254Z,0.50
2023-01-15T22:39:10.891Z,0.82
2023-01-15T22:41:56.327Z,0.90
2023-01-15T22:44:23.111Z,0.63
2023-01-15T22:46:50.543Z,0.70
2023-01-15T22:49:17.516Z,0.60
2023-01-15T22:51:44.179Z,0.60
2023-01-15T22:54:10.913Z,1.40
2023-01-15T22:56:37.595Z,1.10
2023-01-15T22:59:04.925Z,0.80
2023-01-15T23:01:31.655Z,1.00
2023-01-15T23:03:58.875Z,0.98
2023-01-15T23:06:28.353Z,0.93
2023-01-15T23:08:58.304Z,0.80
2023-01-15T23:11:25.294Z,0.75
2023-01-15T23:13:52.140Z,0.73
2023-01-15T23:16:19.233Z,0.70
2023-01-15T23:18:45.923Z,0.70
2023-01-15T23:21:13.894Z,0.77
2023-01-15T23:23:40.499Z,1.05
2023-01-15T23:26:08.964Z,0.80
2023-01-15T23:28:35.573Z,0.80
2023-01-15T23:31:02.217Z,0.93
2023-01-15T23:33:29.017Z,0.63
2023-01-15T23:35:55.970Z,1.20
2023-01-15T23:38:22.600Z,0.80
2023-01-15T23:40:49.494Z,0.73
2023-01-15T23:43:35.489Z,0.73
2023-01-15T23:46:32.744Z,1.10
2023-01-15T23:49:00.227Z,0.70
2023-01-15T23:51:27.218Z,0.80
2023-01-15T23:53:55.670Z,0.90
2023-01-15T23:56:22.795Z,1.13
2023-01-15T23:58:49.722Z,0.70
